sensor_id;sensor_type;location;lat;lon;timestamp;pressure;altitude;pressure_sealevel;temperature;humidity
21594;BME280;10959;51.328;7.322;2023-03-01T00:00:05;100062.75;;;1.97;60.32
21594;BME280;10959;51.328;7.322;2023-03-01T00:02:32;100066.28;;;1.96;60.79
21594;BME280;10959;51.328;7.322;2023-03-01T00:04:58;100061.84;;;1.92;60.75
21594;BME280;10959;51.328;7.322;2023-03-01T00:07:25;100058.28;;;1.86;61.30
21594;BME280;10959;51.328;7.322;2023-03-01T00:09:51;100067.09;;;1.82;61.12
21594;BME280;10959;51.328;7.322;2023-03-01T00:12:19;100074.22;;;1.86;61.28
21594;BME280;10959;51.328;7.322;2023-03-01T00:14:45;100071.53;;;1.83;61.48
21594;BME280;10959;51.328;7.322;2023-03-01T00:17:13;100069.75;;;1.82;60.96
21594;BME280;10959;51.328;7.322;2023-03-01T00:19:40;100072.41;;;1.82;61.57
21594;BME280;10959;51.328;7.322;2023-03-01T00:22:06;100063.56;;;1.80;61.78
21594;BME280;10959;51.328;7.322;2023-03-01T00:24:33;100058.25;;;1.80;61.21
21594;BME280;10959;51.328;7.322;2023-03-01T00:26:59;100061.75;;;1.73;61.38
21594;BME280;10959;51.328;7.322;2023-03-01T00:29:26;100052.88;;;1.71;61.83
21594;BME280;10959;51.328;7.322;2023-03-01T00:31:52;100048.44;;;1.71;62.15
21594;BME280;10959;51.328;7.322;2023-03-01T00:34:20;100041.38;;;1.70;61.67
21594;BME280;10959;51.328;7.322;2023-03-01T00:36:47;100042.25;;;1.71;61.35
21594;BME280;10959;51.328;7.322;2023-03-01T00:39:14;100037.84;;;1.73;62.19
21594;BME280;10959;51.328;7.322;2023-03-01T00:41:42;100036.06;;;1.73;61.66
21594;BME280;10959;51.328;7.322;2023-03-01T00:44:08;100040.47;;;1.70;61.87
21594;BME280;10959;51.328;7.322;2023-03-01T00:46:35;100038.69;;;1.66;61.47
21594;BME280;10959;51.328;7.322;2023-03-01T00:49:02;100041.31;;;1.64;61.96
21594;BME280;10959;51.328;7.322;2023-03-01T00:51:31;100040.41;;;1.61;61.44
21594;BME280;10959;51.328;7.322;2023-03-01T00:54:00;100036.84;;;1.59;61.53
21594;BME280;10959;51.328;7.322;2023-03-01T00:56:27;100032.41;;;1.53;61.50
21594;BME280;10959;51.328;7.322;2023-03-01T00:58:54;100027.94;;;1.47;61.93
21594;BME280;10959;51.328;7.322;2023-03-01T01:01:23;100031.47;;;1.46;61.61
21594;BME280;10959;51.328;7.322;2023-03-01T01:03:53;100030.53;;;1.41;61.63
21594;BME280;10959;51.328;7.322;2023-03-01T01:06:22;100022.56;;;1.38;61.75
21594;BME280;10959;51.328;7.322;2023-03-01T01:08:52;100019.88;;;1.33;62.23
21594;BME280;10959;51.328;7.322;2023-03-01T01:11:19;100026.03;;;1.31;62.68
21594;BME280;10959;51.328;7.322;2023-03-01T01:13:47;100017.22;;;1.32;62.64
21594;BME280;10959;51.328;7.322;2023-03-01T01:16:15;100009.25;;;1.30;62.97
21594;BME280;10959;51.328;7.322;2023-03-01T01:18:42;100010.13;;;1.31;62.54
21594;BME280;10959;51.328;7.322;2023-03-01T01:21:10;100005.69;;;1.30;62.84
21594;BME280;10959;51.328;7.322;2023-03-01T01:23:38;100011.00;;;1.31;62.91
21594;BME280;10959;51.328;7.322;2023-03-01T01:26:08;100003.00;;;1.24;62.44
21594;BME280;10959;51.328;7.322;2023-03-01T01:28:35;99999.47;;;1.25;63.00
21594;BME280;10959;51.328;7.322;2023-03-01T01:31:02;99989.72;;;1.24;62.96
21594;BME280;10959;51.328;7.322;2023-03-01T01:33:29;99990.59;;;1.23;62.89
21594;BME280;10959;51.328;7.322;2023-03-01T01:35:55;99987.03;;;1.16;62.97
21594;BME280;10959;51.328;7.322;2023-03-01T01:38:22;99995.84;;;1.10;62.17
21594;BME280;10959;51.328;7.322;2023-03-01T01:40:50;99981.63;;;1.02;62.91
21594;BME280;10959;51.328;7.322;2023-03-01T01:43:21;99977.97;;;0.88;63.11
21594;BME280;10959;51.328;7.322;2023-03-01T01:45:48;99981.47;;;0.86;63.16
21594;BME280;10959;51.328;7.322;2023-03-01T01:48:17;99976.16;;;0.83;62.96
21594;BME280;10959;51.328;7.322;2023-03-01T01:50:45;99973.50;;;0.85;63.80
21594;BME280;10959;51.328;7.322;2023-03-01T01:53:17;99976.16;;;0.83;63.77
21594;BME280;10959;51.328;7.322;2023-03-01T01:55:47;99974.38;;;0.85;63.52
21594;BME280;10959;51.328;7.322;2023-03-01T01:58:19;99977.97;;;0.88;63.75
21594;BME280;10959;51.328;7.322;2023-03-01T02:00:47;99988.59;;;0.91;63.13
21594;BME280;10959;51.328;7.322;2023-03-01T02:03:18;99991.19;;;0.83;63.06
21594;BME280;10959;51.328;7.322;2023-03-01T02:05:49;99985.88;;;0.83;63.13
21594;BME280;10959;51.328;7.322;2023-03-01T02:08:19;99990.28;;;0.82;63.30
21594;BME280;10959;51.328;7.322;2023-03-01T02:10:48;99991.19;;;0.84;63.48
21594;BME280;10959;51.328;7.322;2023-03-01T02:13:16;99981.44;;;0.82;63.59
21594;BME280;10959;51.328;7.322;2023-03-01T02:15:44;99992.03;;;0.80;63.27
21594;BME280;10959;51.328;7.322;2023-03-01T02:18:12;99987.59;;;0.79;63.96
21594;BME280;10959;51.328;7.322;2023-03-01T02:20:47;99970.75;;;0.74;63.01
21594;BME280;10959;51.328;7.322;2023-03-01T02:23:16;99969.03;;;0.76;63.34
21594;BME280;10959;51.328;7.322;2023-03-01T02:25:49;99966.34;;;0.72;63.33
21594;BME280;10959;51.328;7.322;2023-03-01T02:28:24;99960.94;;;0.64;63.59
21594;BME280;10959;51.328;7.322;2023-03-01T02:30:51;99965.38;;;0.62;63.68
21594;BME280;10959;51.328;7.322;2023-03-01T02:33:38;99963.50;;;0.51;64.08
21594;BME280;10959;51.328;7.322;2023-03-01T02:36:08;99961.69;;;0.47;63.78
21594;BME280;10959;51.328;7.322;2023-03-01T02:38:36;99959.94;;;0.49;63.52
21594;BME280;10959;51.328;7.322;2023-03-01T02:41:04;99961.69;;;0.47;64.01
21594;BME280;10959;51.328;7.322;2023-03-01T02:43:34;99970.50;;;0.46;64.17
21594;BME280;10959;51.328;7.322;2023-03-01T02:46:04;99961.63;;;0.44;63.60
21594;BME280;10959;51.328;7.322;2023-03-01T02:48:40;99963.34;;;0.36;63.76
21594;BME280;10959;51.328;7.322;2023-03-01T02:51:13;99960.75;;;0.42;64.47
21594;BME280;10959;51.328;7.322;2023-03-01T02:53:49;99963.31;;;0.33;64.17
21594;BME280;10959;51.328;7.322;2023-03-01T02:56:19;99966.00;;;0.38;64.95
21594;BME280;10959;51.328;7.322;2023-03-01T02:58:48;99961.59;;;0.38;64.42
21594;BME280;10959;51.328;7.322;2023-03-01T03:01:16;99961.59;;;0.41;64.91
21594;BME280;10959;51.328;7.322;2023-03-01T03:03:43;99963.41;;;0.42;64.47
21594;BME280;10959;51.328;7.322;2023-03-01T03:06:10;99965.19;;;0.43;64.27
21594;BME280;10959;51.328;7.322;2023-03-01T03:08:36;99961.63;;;0.44;64.85
21594;BME280;10959;51.328;7.322;2023-03-01T03:11:03;99962.53;;;0.42;63.96
21594;BME280;10959;51.328;7.322;2023-03-01T03:13:30;99949.19;;;0.37;63.99
21594;BME280;10959;51.328;7.322;2023-03-01T03:15:58;99948.31;;;0.35;63.89
21594;BME280;10959;51.328;7.322;2023-03-01T03:18:25;99943.88;;;0.34;64.54
21594;BME280;10959;51.328;7.322;2023-03-01T03:20:52;99945.63;;;0.32;63.69
21594;BME280;10959;51.328;7.322;2023-03-01T03:23:20;99936.72;;;0.24;63.98
21594;BME280;10959;51.328;7.322;2023-03-01T03:25:48;99930.53;;;0.22;64.46
21594;BME280;10959;51.328;7.322;2023-03-01T03:28:15;99938.41;;;0.19;64.45
21594;BME280;10959;51.328;7.322;2023-03-01T03:30:42;99948.13;;;0.18;64.96
21594;BME280;10959;51.328;7.322;2023-03-01T03:33:11;99943.69;;;0.15;64.28
21594;BME280;10959;51.328;7.322;2023-03-01T03:35:40;99941.97;;;0.21;64.90
21594;BME280;10959;51.328;7.322;2023-03-01T03:38:10;99945.50;;;0.20;64.41
21594;BME280;10959;51.328;7.322;2023-03-01T03:40:42;99940.16;;;0.16;64.96
21594;BME280;10959;51.328;7.322;2023-03-01T03:43:10;99945.47;;;0.16;64.98
21594;BME280;10959;51.328;7.322;2023-03-01T03:45:37;99943.72;;;0.19;64.85
21594;BME280;10959;51.328;7.322;2023-03-01T03:48:05;99937.53;;;0.18;64.46
21594;BME280;10959;51.328;7.322;2023-03-01T03:50:34;99934.88;;;0.18;64.43
21594;BME280;10959;51.328;7.322;2023-03-01T03:53:01;99932.25;;;0.18;65.14
21594;BME280;10959;51.328;7.322;2023-03-01T03:55:28;99920.75;;;0.14;65.03
21594;BME280;10959;51.328;7.322;2023-03-01T03:57:57;99916.28;;;0.10;64.42
21594;BME280;10959;51.328;7.322;2023-03-01T04:00:27;99918.91;;;0.07;65.10
21594;BME280;10959;51.328;7.322;2023-03-01T04:02:54;99903.88;;;0.05;65.32
21594;BME280;10959;51.328;7.322;2023-03-01T04:05:22;99909.97;;;-0.01;64.44
21594;BME280;10959;51.328;7.322;2023-03-01T04:07:50;99912.59;;;-0.06;64.91
21594;BME280;10959;51.328;7.322;2023-03-01T04:10:27;99908.03;;;-0.14;65.38
21594;BME280;10959;51.328;7.322;2023-03-01T04:12:53;99909.81;;;-0.16;65.63
21594;BME280;10959;51.328;7.322;2023-03-01T04:15:22;99909.81;;;-0.13;65.40
21594;BME280;10959;51.328;7.322;2023-03-01T04:17:50;99913.34;;;-0.14;65.88
21594;BME280;10959;51.328;7.322;2023-03-01T04:20:18;99913.34;;;-0.14;65.02
21594;BME280;10959;51.328;7.322;2023-03-01T04:22:52;99914.22;;;-0.17;65.20
21594;BME280;10959;51.328;7.322;2023-03-01T04:25:19;99924.00;;;-0.11;65.76
21594;BME280;10959;51.328;7.322;2023-03-01T04:27:45;99918.63;;;-0.16;65.67
21594;BME280;10959;51.328;7.322;2023-03-01T04:30:12;99920.41;;;-0.13;65.81
21594;BME280;10959;51.328;7.322;2023-03-01T04:32:39;99908.03;;;-0.14;66.31
21594;BME280;10959;51.328;7.322;2023-03-01T04:35:06;99915.09;;;-0.15;65.63
21594;BME280;10959;51.328;7.322;2023-03-01T04:37:32;99904.50;;;-0.16;66.21
21594;BME280;10959;51.328;7.322;2023-03-01T04:40:02;99908.00;;;-0.18;66.20
21594;BME280;10959;51.328;7.322;2023-03-01T04:42:37;99906.25;;;-0.19;65.86
21594;BME280;10959;51.328;7.322;2023-03-01T04:45:05;99906.28;;;-0.15;65.80
21594;BME280;10959;51.328;7.322;2023-03-01T04:47:38;99911.50;;;-0.22;66.05
21594;BME280;10959;51.328;7.322;2023-03-01T04:50:06;99906.19;;;-0.22;65.47
21594;BME280;10959;51.328;7.322;2023-03-01T04:52:32;99895.56;;;-0.28;65.75
21594;BME280;10959;51.328;7.322;2023-03-01T04:55:00;99898.13;;;-0.34;66.09
21594;BME280;10959;51.328;7.322;2023-03-01T04:57:28;99897.22;;;-0.36;66.28
21594;BME280;10959;51.328;7.322;2023-03-01T04:59:55;99897.28;;;-0.31;66.75
21594;BME280;10959;51.328;7.322;2023-03-01T05:02:22;99906.09;;;-0.31;66.59
21594;BME280;10959;51.328;7.322;2023-03-01T05:04:48;99911.38;;;-0.34;66.74
21594;BME280;10959;51.328;7.322;2023-03-01T05:07:15;99908.69;;;-0.36;65.78
21594;BME280;10959;51.328;7.322;2023-03-01T05:09:44;99904.22;;;-0.41;66.18
21594;BME280;10959;51.328;7.322;2023-03-01T05:12:12;99914.78;;;-0.44;66.17
21594;BME280;10959;51.328;7.322;2023-03-01T05:14:39;99911.22;;;-0.43;66.91
21594;BME280;10959;51.328;7.322;2023-03-01T05:17:05;99904.13;;;-0.47;66.44
21594;BME280;10959;51.328;7.322;2023-03-01T05:19:32;99902.38;;;-0.48;67.06
21594;BME280;10959;51.328;7.322;2023-03-01T05:21:59;99904.88;;;-0.59;67.79
21594;BME280;10959;51.328;7.322;2023-03-01T05:24:31;99896.94;;;-0.58;67.65
21594;BME280;10959;51.328;7.322;2023-03-01T05:26:59;99893.25;;;-0.69;68.29
21594;BME280;10959;51.328;7.322;2023-03-01T05:29:28;99889.50;;;-0.87;69.28
21594;BME280;10959;51.328;7.322;2023-03-01T05:31:56;99897.25;;;-0.99;69.62
21594;BME280;10959;51.328;7.322;2023-03-01T05:34:24;99898.72;;;-1.19;70.28
21594;BME280;10959;51.328;7.322;2023-03-01T05:36:51;99882.09;;;-1.12;70.70
21594;BME280;10959;51.328;7.322;2023-03-01T05:39:19;99884.00;;;-1.02;70.38
21594;BME280;10959;51.328;7.322;2023-03-01T05:41:46;99889.38;;;-0.96;69.67
21594;BME280;10959;51.328;7.322;2023-03-01T05:44:12;99882.31;;;-0.97;70.16
21594;BME280;10959;51.328;7.322;2023-03-01T05:46:41;99887.59;;;-0.97;69.71
21594;BME280;10959;51.328;7.322;2023-03-01T05:49:07;99885.88;;;-0.95;70.23
21594;BME280;10959;51.328;7.322;2023-03-01T05:51:34;99892.09;;;-0.91;69.73
21594;BME280;10959;51.328;7.322;2023-03-01T05:54:00;99885.91;;;-0.92;69.76
21594;BME280;10959;51.328;7.322;2023-03-01T05:56:27;99879.75;;;-0.91;69.89
21594;BME280;10959;51.328;7.322;2023-03-01T05:58:54;99882.41;;;-0.91;69.04
21594;BME280;10959;51.328;7.322;2023-03-01T06:01:21;99879.81;;;-0.86;69.41
21594;BME280;10959;51.328;7.322;2023-03-01T06:03:48;99882.47;;;-0.84;69.46
21594;BME280;10959;51.328;7.322;2023-03-01T06:06:15;99886.88;;;-0.85;69.67
21594;BME280;10959;51.328;7.322;2023-03-01T06:08:42;99886.91;;;-0.82;69.41
21594;BME280;10959;51.328;7.322;2023-03-01T06:11:09;99892.25;;;-0.77;68.92
21594;BME280;10959;51.328;7.322;2023-03-01T06:13:35;99896.72;;;-0.73;68.09
21594;BME280;10959;51.328;7.322;2023-03-01T06:16:04;99895.91;;;-0.69;67.89
21594;BME280;10959;51.328;7.322;2023-03-01T06:18:31;99898.56;;;-0.69;67.85
21594;BME280;10959;51.328;7.322;2023-03-01T06:20:59;99884.44;;;-0.71;67.83
21594;BME280;10959;51.328;7.322;2023-03-01T06:23:25;99888.78;;;-0.73;67.96
21594;BME280;10959;51.328;7.322;2023-03-01T06:25:52;99896.66;;;-0.79;67.67
21594;BME280;10959;51.328;7.322;2023-03-01T06:28:19;99891.16;;;-0.95;68.75
21594;BME280;10959;51.328;7.322;2023-03-01T06:30:45;99892.78;;;-1.03;69.58
21594;BME280;10959;51.328;7.322;2023-03-01T06:33:12;99892.84;;;-1.00;69.43
21594;BME280;10959;51.328;7.322;2023-03-01T06:35:39;99896.19;;;-1.10;70.51
21594;BME280;10959;51.328;7.322;2023-03-01T06:38:07;99894.72;;;-1.49;72.76
21594;BME280;10959;51.328;7.322;2023-03-01T06:40:33;99890.88;;;-1.70;74.04
21594;BME280;10959;51.328;7.322;2023-03-01T06:43:01;99878.72;;;-1.59;74.07
21594;BME280;10959;51.328;7.322;2023-03-01T06:45:27;99890.41;;;-1.44;73.79
21594;BME280;10959;51.328;7.322;2023-03-01T06:48:02;99885.50;;;-1.73;74.77
21594;BME280;10959;51.328;7.322;2023-03-01T06:50:29;99870.53;;;-1.74;75.38
21594;BME280;10959;51.328;7.322;2023-03-01T06:52:56;99875.41;;;-1.45;75.03
21594;BME280;10959;51.328;7.322;2023-03-01T06:55:24;99867.97;;;-1.14;73.69
21594;BME280;10959;51.328;7.322;2023-03-01T06:57:54;99861.13;;;-1.01;72.59
21594;BME280;10959;51.328;7.322;2023-03-01T07:00:22;99870.16;;;-0.85;72.30
21594;BME280;10959;51.328;7.322;2023-03-01T07:02:49;99865.91;;;-0.73;72.03
21594;BME280;10959;51.328;7.322;2023-03-01T07:05:15;99868.69;;;-0.60;71.88
21594;BME280;10959;51.328;7.322;2023-03-01T07:07:42;99871.56;;;-0.42;70.76
21594;BME280;10959;51.328;7.322;2023-03-01T07:10:10;99863.81;;;-0.25;70.76
21594;BME280;10959;51.328;7.322;2023-03-01T07:12:38;99870.25;;;-0.03;70.36
21594;BME280;10959;51.328;7.322;2023-03-01T07:15:08;99873.06;;;0.14;69.84
21594;BME280;10959;51.328;7.322;2023-03-01T07:17:35;99871.47;;;0.35;69.64
21594;BME280;10959;51.328;7.322;2023-03-01T07:20:02;99865.47;;;0.55;69.34
21594;BME280;10959;51.328;7.322;2023-03-01T07:22:29;99870.00;;;0.71;68.53
21594;BME280;10959;51.328;7.322;2023-03-01T07:24:55;99862.16;;;0.88;68.66
21594;BME280;10959;51.328;7.322;2023-03-01T07:27:22;99851.66;;;1.03;68.44
21594;BME280;10959;51.328;7.322;2023-03-01T07:29:50;99851.75;;;1.19;67.67
21594;BME280;10959;51.328;7.322;2023-03-01T07:32:16;99851.84;;;1.41;67.54
21594;BME280;10959;51.328;7.322;2023-03-01T07:34:43;99858.97;;;1.46;67.53
21594;BME280;10959;51.328;7.322;2023-03-01T07:37:09;99852.72;;;1.38;66.44
21594;BME280;10959;51.328;7.322;2023-03-01T07:39:36;99845.59;;;1.25;66.34
21594;BME280;10959;51.328;7.322;2023-03-01T07:42:03;99843.75;;;1.14;66.95
21594;BME280;10959;51.328;7.322;2023-03-01T07:44:29;99853.59;;;1.38;67.33
21594;BME280;10959;51.328;7.322;2023-03-01T07:46:57;99856.34;;;1.59;66.46
21594;BME280;10959;51.328;7.322;2023-03-01T07:49:23;99850.13;;;1.49;66.19
21594;BME280;10959;51.328;7.322;2023-03-01T07:51:51;99851.88;;;1.44;65.38
21594;BME280;10959;51.328;7.322;2023-03-01T07:54:18;99848.38;;;1.55;65.50
21594;BME280;10959;51.328;7.322;2023-03-01T07:56:44;99852.88;;;1.78;65.92
21594;BME280;10959;51.328;7.322;2023-03-01T07:59:11;99852.91;;;1.97;65.65
21594;BME280;10959;51.328;7.322;2023-03-01T08:01:38;99856.47;;;2.11;64.87
21594;BME280;10959;51.328;7.322;2023-03-01T08:04:07;99851.16;;;2.11;64.11
21594;BME280;10959;51.328;7.322;2023-03-01T08:06:34;99851.22;;;2.39;64.66
21594;BME280;10959;51.328;7.322;2023-03-01T08:09:01;99853.84;;;2.53;63.88
21594;BME280;10959;51.328;7.322;2023-03-01T08:11:28;99849.44;;;2.69;63.51
21594;BME280;10959;51.328;7.322;2023-03-01T08:13:54;99856.53;;;2.57;62.70
21594;BME280;10959;51.328;7.322;2023-03-01T08:16:21;99860.97;;;2.41;62.35
21594;BME280;10959;51.328;7.322;2023-03-01T08:18:48;99861.84;;;2.64;62.47
21594;BME280;10959;51.328;7.322;2023-03-01T08:21:17;99860.06;;;2.56;61.16
21594;BME280;10959;51.328;7.322;2023-03-01T08:23:44;99860.06;;;2.58;61.75
21594;BME280;10959;51.328;7.322;2023-03-01T08:26:13;99853.81;;;2.88;61.71
21594;BME280;10959;51.328;7.322;2023-03-01T08:28:41;99848.47;;;3.04;60.41
21594;BME280;10959;51.328;7.322;2023-03-01T08:31:15;99851.97;;;3.27;61.14
21594;BME280;10959;51.328;7.322;2023-03-01T08:33:42;99843.97;;;3.34;60.12
21594;BME280;10959;51.328;7.322;2023-03-01T08:36:09;99841.22;;;3.52;60.04
21594;BME280;10959;51.328;7.322;2023-03-01T08:38:37;99833.38;;;3.24;60.18
21594;BME280;10959;51.328;7.322;2023-03-01T08:41:04;99841.31;;;3.31;60.61
21594;BME280;10959;51.328;7.322;2023-03-01T08:43:30;99836.75;;;3.60;60.41
21594;BME280;10959;51.328;7.322;2023-03-01T08:45:57;99841.94;;;3.88;60.09
21594;BME280;10959;51.328;7.322;2023-03-01T08:48:23;99836.63;;;3.85;59.19
21594;BME280;10959;51.328;7.322;2023-03-01T08:50:50;99833.81;;;4.10;58.87
21594;BME280;10959;51.328;7.322;2023-03-01T08:53:17;99831.13;;;4.13;58.59
21594;BME280;10959;51.328;7.322;2023-03-01T08:55:45;99849.94;;;3.88;57.95
21594;BME280;10959;51.328;7.322;2023-03-01T08:58:12;99835.72;;;3.91;57.96
21594;BME280;10959;51.328;7.322;2023-03-01T09:00:39;99832.94;;;4.09;58.28
21594;BME280;10959;51.328;7.322;2023-03-01T09:03:06;99840.91;;;4.12;57.92
21594;BME280;10959;51.328;7.322;2023-03-01T09:05:33;99837.47;;;3.93;56.97
21594;BME280;10959;51.328;7.322;2023-03-01T09:08:02;99841.94;;;3.85;58.01
21594;BME280;10959;51.328;7.322;2023-03-01T09:10:28;99843.53;;;4.17;57.55
21594;BME280;10959;51.328;7.322;2023-03-01T09:12:56;99842.44;;;4.44;57.34
21594;BME280;10959;51.328;7.322;2023-03-01T09:15:23;99839.50;;;4.77;57.15
21594;BME280;10959;51.328;7.322;2023-03-01T09:17:49;99846.66;;;4.75;56.04
21594;BME280;10959;51.328;7.322;2023-03-01T09:20:17;99837.69;;;4.82;55.60
21594;BME280;10959;51.328;7.322;2023-03-01T09:22:44;99827.19;;;4.63;54.48
21594;BME280;10959;51.328;7.322;2023-03-01T09:25:10;99819.06;;;4.73;55.13
21594;BME280;10959;51.328;7.322;2023-03-01T09:27:37;99821.81;;;4.66;54.91
21594;BME280;10959;51.328;7.322;2023-03-01T09:30:07;99821.81;;;4.66;54.20
21594;BME280;10959;51.328;7.322;2023-03-01T09:32:34;99811.97;;;4.73;54.61
21594;BME280;10959;51.328;7.322;2023-03-01T09:35:01;99800.06;;;5.07;55.10
21594;BME280;10959;51.328;7.322;2023-03-01T09:37:29;99797.41;;;5.05;54.14
21594;BME280;10959;51.328;7.322;2023-03-01T09:39:56;99802.75;;;5.05;53.26
21594;BME280;10959;51.328;7.322;2023-03-01T09:42:23;99797.31;;;5.13;53.35
21594;BME280;10959;51.328;7.322;2023-03-01T09:44:51;99792.72;;;5.27;53.75
21594;BME280;10959;51.328;7.322;2023-03-01T09:47:26;99787.78;;;4.87;52.69
21594;BME280;10959;51.328;7.322;2023-03-01T09:50:00;99788.41;;;5.12;53.56
21594;BME280;10959;51.328;7.322;2023-03-01T09:52:34;99797.34;;;5.10;53.55
21594;BME280;10959;51.328;7.322;2023-03-01T09:55:09;99789.53;;;5.64;53.30
21594;BME280;10959;51.328;7.322;2023-03-01T09:57:41;99785.75;;;5.81;51.32
21594;BME280;10959;51.328;7.322;2023-03-01T10:00:16;99788.22;;;5.96;51.74
21594;BME280;10959;51.328;7.322;2023-03-01T10:02:49;99800.38;;;6.19;50.60
21594;BME280;10959;51.328;7.322;2023-03-01T10:05:35;99803.53;;;5.83;49.30
21594;BME280;10959;51.328;7.322;2023-03-01T10:11:20;99790.50;;;5.60;50.71
21594;BME280;10959;51.328;7.322;2023-03-01T10:13:52;99800.72;;;5.97;51.07
21594;BME280;10959;51.328;7.322;2023-03-01T10:16:23;99792.22;;;6.27;50.73
21594;BME280;10959;51.328;7.322;2023-03-01T10:18:57;99811.78;;;6.30;50.31
21594;BME280;10959;51.328;7.322;2023-03-01T10:21:27;99802.91;;;6.28;48.98
21594;BME280;10959;51.328;7.322;2023-03-01T10:23:55;99795.44;;;6.47;49.22
21594;BME280;10959;51.328;7.322;2023-03-01T10:26:37;99788.06;;;6.63;48.97
21594;BME280;10959;51.328;7.322;2023-03-01T10:29:06;99780.38;;;6.91;49.81
21594;BME280;10959;51.328;7.322;2023-03-01T10:31:39;99781.56;;;6.77;48.13
21594;BME280;10959;51.328;7.322;2023-03-01T10:34:11;99762.72;;;6.31;48.26
21594;BME280;10959;51.328;7.322;2023-03-01T10:36:39;99765.94;;;6.52;48.64
21594;BME280;10959;51.328;7.322;2023-03-01T10:39:12;99761.84;;;6.81;48.64
21594;BME280;10959;51.328;7.322;2023-03-01T10:41:53;99773.03;;;6.56;47.60
21594;BME280;10959;51.328;7.322;2023-03-01T10:44:36;99762.88;;;6.73;48.20
21594;BME280;10959;51.328;7.322;2023-03-01T10:47:03;99754.41;;;7.40;48.33
21594;BME280;10959;51.328;7.322;2023-03-01T10:49:31;99754.78;;;7.64;47.28
21594;BME280;10959;51.328;7.322;2023-03-01T10:52:11;99754.13;;;7.11;46.03
21594;BME280;10959;51.328;7.322;2023-03-01T10:54:51;99750.03;;;7.36;46.19
21594;BME280;10959;51.328;7.322;2023-03-01T10:57:29;99739.63;;;7.21;45.63
21594;BME280;10959;51.328;7.322;2023-03-01T11:00:02;99741.72;;;7.06;45.68
21594;BME280;10959;51.328;7.322;2023-03-01T11:02:37;99750.59;;;7.08;45.91
21594;BME280;10959;51.328;7.322;2023-03-01T11:05:17;99735.31;;;7.14;46.52
21594;BME280;10959;51.328;7.322;2023-03-01T11:07:50;99722.34;;;7.76;45.66
21594;BME280;10959;51.328;7.322;2023-03-01T11:10:18;99715.09;;;7.82;44.80
21594;BME280;10959;51.328;7.322;2023-03-01T11:12:45;99718.44;;;7.90;45.06
21594;BME280;10959;51.328;7.322;2023-03-01T11:15:21;99716.69;;;7.89;45.78
21594;BME280;10959;51.328;7.322;2023-03-01T11:17:49;99719.38;;;8.25;45.17
21594;BME280;10959;51.328;7.322;2023-03-01T11:20:29;99710.25;;;8.32;45.80
21594;BME280;10959;51.328;7.322;2023-03-01T11:23:00;99706.03;;;8.58;44.76
21594;BME280;10959;51.328;7.322;2023-03-01T11:25:32;99706.22;;;8.52;44.47
21594;BME280;10959;51.328;7.322;2023-03-01T11:28:02;99706.69;;;8.99;45.48
21594;BME280;10959;51.328;7.322;2023-03-01T11:30:33;99703.44;;;8.88;44.40
21594;BME280;10959;51.328;7.322;2023-03-01T11:33:11;99707.13;;;8.84;44.24
21594;BME280;10959;51.328;7.322;2023-03-01T11:35:45;99707.44;;;8.71;43.89
21594;BME280;10959;51.328;7.322;2023-03-01T11:38:20;99706.69;;;8.99;43.75
21594;BME280;10959;51.328;7.322;2023-03-01T11:40:49;99700.25;;;9.05;42.91
21594;BME280;10959;51.328;7.322;2023-03-01T11:43:23;99695.84;;;9.02;43.95
21594;BME280;10959;51.328;7.322;2023-03-01T11:46:29;99707.47;;;9.03;43.83
21594;BME280;10959;51.328;7.322;2023-03-01T11:49:08;99702.53;;;9.19;43.15
21594;BME280;10959;51.328;7.322;2023-03-01T11:51:46;99714.63;;;9.04;43.43
21594;BME280;10959;51.328;7.322;2023-03-01T11:54:33;99702.19;;;8.99;43.91
21594;BME280;10959;51.328;7.322;2023-03-01T11:57:11;99690.91;;;8.87;43.31
21594;BME280;10959;51.328;7.322;2023-03-01T12:02:45;99695.94;;;8.33;44.13
21594;BME280;10959;51.328;7.322;2023-03-01T12:08:23;99696.44;;;8.11;43.11
21594;BME280;10959;51.328;7.322;2023-03-01T12:10:59;99688.88;;;8.29;44.07
21594;BME280;10959;51.328;7.322;2023-03-01T12:13:49;99681.91;;;8.22;44.25
21594;BME280;10959;51.328;7.322;2023-03-01T12:16:25;99681.28;;;8.46;44.99
21594;BME280;10959;51.328;7.322;2023-03-01T12:19:15;99681.00;;;8.56;44.01
21594;BME280;10959;51.328;7.322;2023-03-01T12:22:03;99678.38;;;8.54;44.58
21594;BME280;10959;51.328;7.322;2023-03-01T12:24:47;99679.66;;;8.05;44.98
21594;BME280;10959;51.328;7.322;2023-03-01T12:27:35;99671.38;;;8.48;44.84
21594;BME280;10959;51.328;7.322;2023-03-01T12:30:15;99658.97;;;8.77;45.54
21594;BME280;10959;51.328;7.322;2023-03-01T12:32:53;99666.44;;;8.66;45.01
21594;BME280;10959;51.328;7.322;2023-03-01T12:35:50;99666.16;;;8.75;45.04
21594;BME280;10959;51.328;7.322;2023-03-01T12:38:31;99661.56;;;8.80;44.48
21594;BME280;10959;51.328;7.322;2023-03-01T12:41:29;99663.09;;;8.23;45.66
21594;BME280;10959;51.328;7.322;2023-03-01T12:44:11;99662.34;;;8.17;45.45
21594;BME280;10959;51.328;7.322;2023-03-01T12:46:52;99666.50;;;7.94;46.11
21594;BME280;10959;51.328;7.322;2023-03-01T12:49:25;99657.28;;;8.04;47.37
21594;BME280;10959;51.328;7.322;2023-03-01T12:51:57;99648.72;;;8.24;46.38
21594;BME280;10959;51.328;7.322;2023-03-01T12:54:27;99660.31;;;7.92;46.90
21594;BME280;10959;51.328;7.322;2023-03-01T12:56:57;99652.34;;;7.89;47.27
21594;BME280;10959;51.328;7.322;2023-03-01T12:59:29;99648.59;;;7.96;46.54
21594;BME280;10959;51.328;7.322;2023-03-01T13:02:04;99641.38;;;7.98;46.56
21594;BME280;10959;51.328;7.322;2023-03-01T13:04:44;99642.13;;;7.30;47.38
21594;BME280;10959;51.328;7.322;2023-03-01T13:07:22;99647.41;;;7.33;47.83
21594;BME280;10959;51.328;7.322;2023-03-01T13:09:58;99637.34;;;7.42;47.61
21594;BME280;10959;51.328;7.322;2023-03-01T13:12:44;99642.50;;;7.13;47.62
21594;BME280;10959;51.328;7.322;2023-03-01T13:15:31;99634.75;;;6.99;48.23
21594;BME280;10959;51.328;7.322;2023-03-01T13:17:59;99633.31;;;7.62;48.03
21594;BME280;10959;51.328;7.322;2023-03-01T13:20:31;99625.25;;;7.26;47.80
21594;BME280;10959;51.328;7.322;2023-03-01T13:23:04;99621.00;;;7.55;48.11
21594;BME280;10959;51.328;7.322;2023-03-01T13:25:31;99619.53;;;7.40;48.06
21594;BME280;10959;51.328;7.322;2023-03-01T13:28:38;99623.88;;;7.06;48.08
21594;BME280;10959;51.328;7.322;2023-03-01T13:31:07;99639.38;;;6.92;47.71